Time;durP1;ratioP1;P1;durP2;ratioP2;P2;SDS_P1;SDS_P2;PMS_P1;PMS_P2;Temp;Humidity;BMP_temperature;BMP_pressure;BME280_temperature;BME280_humidity;BME280_pressure;Samples;Min_cycle;Max_cycle;Signal;HPM_P1;HPM_P2
2021/11/12 00:13:19;;;;;;;17.25;11.52;;;;;;;1.51;66.08;95531.94;5071632;28;20086;-75
2021/11/12 00:15:50;;;;;;;16.15;10.43;;;;;;;1.57;66.34;95544.50;5071952;28;20033;-75
2021/11/12 00:18:16;;;;;;;;;;;;;;;1.58;66.04;95545.34;5071661;28;20032;-75
2021/11/12 00:20:41;;;;;;;10.10;6.97;;;;;;;1.55;66.73;95546.28;5071924;28;20015;-75
2021/11/12 00:23:08;;;;;;;14.98;7.85;;;;;;;1.53;66.65;95548.91;5070595;28;20422;-75
2021/11/12 00:25:33;;;;;;;11.77;7.78;;;;;;;1.51;66.80;95549.84;5054103;28;20604;-74
2021/11/12 00:27:59;;;;;;;15.25;10.88;;;;;;;1.45;67.02;95544.94;5072203;28;20050;-74
2021/11/12 00:35:47;;;;;;;14.80;9.77;;;;;;;1.48;67.40;95539.72;5070770;28;20047;-75
2021/11/12 00:38:22;;;;;;;13.82;9.27;;;;;;;1.47;67.67;95528.63;5070761;28;20033;-75
2021/11/12 00:46:13;;;;;;;16.38;10.15;;;;;;;1.44;66.83;95528.72;5070754;28;20464;-75
2021/11/12 00:48:58;;;;;;;14.75;9.52;;;;;;;1.39;67.47;95524.66;5070368;28;20491;-75
2021/11/12 00:51:33;;;;;;;15.82;10.10;;;;;;;1.33;67.38;95515.47;5070522;28;20038;-75
2021/11/12 00:56:26;;;;;;;15.73;11.73;;;;;;;1.29;67.73;95513.94;5070390;28;20060;-75
2021/11/12 00:58:52;;;;;;;14.55;10.23;;;;;;;1.28;67.67;95517.34;5070285;28;20035;-75
2021/11/12 01:01:18;;;;;;;14.95;10.23;;;;;;;1.28;68.42;95510.53;5070200;28;20067;-75
2021/11/12 01:03:45;;;;;;;15.13;10.57;;;;;;;1.35;67.93;95508.59;5069844;28;20021;-75
2021/11/12 01:06:10;;;;;;;13.85;9.70;;;;;;;1.38;68.25;95507.66;5070146;28;20025;-75
2021/11/12 01:08:35;;;;;;;13.48;9.75;;;;;;;1.39;68.00;95509.31;5071206;28;20410;-75
2021/11/12 01:11:02;;;;;;;12.20;8.80;;;;;;;1.41;68.01;95522.91;5071168;28;20028;-75
2021/11/12 01:13:27;;;;;;;13.93;9.13;;;;;;;1.31;67.80;95507.03;5069756;28;20031;-75
2021/11/12 01:15:53;;;;;;;15.88;9.30;;;;;;;1.37;68.10;95506.81;5070012;28;20025;-75
2021/11/12 01:18:18;;;;;;;14.30;8.95;;;;;;;1.41;68.15;95510.09;5053473;28;20036;-75
2021/11/12 01:20:45;;;;;;;12.93;8.95;;;;;;;1.24;67.90;95477.41;5070086;28;20031;-75
2021/11/12 01:23:10;;;;;;;14.02;9.13;;;;;;;1.31;68.11;95496.81;5071415;28;20083;-75
2021/11/12 01:25:36;;;;;;;12.15;8.73;;;;;;;1.40;67.91;95504.13;5053031;28;20576;-75
2021/11/12 01:28:01;;;;;;;12.18;8.75;;;;;;;1.34;67.33;95515.44;5071586;28;20482;-74
2021/11/12 01:30:27;;;;;;;13.85;9.13;;;;;;;1.26;67.58;95512.31;5053063;28;20063;-75
2021/11/12 01:32:52;;;;;;;16.17;8.88;;;;;;;1.21;67.48;95510.81;5069589;28;20033;-74
2021/11/12 01:35:19;;;;;;;13.70;9.18;;;;;;;1.09;68.25;95494.16;5069881;28;20410;-75
2021/11/12 01:37:46;;;;;;;11.65;8.65;;;;;;;1.14;67.93;95499.09;5071398;28;20044;-74
2021/11/12 01:40:20;;;;;;;15.55;9.23;;;;;;;1.21;68.81;95501.41;5070062;28;20032;-74
2021/11/12 01:43:04;;;;;;;16.33;9.73;;;;;;;1.24;68.88;95501.28;5054066;28;20036;-75
2021/11/12 01:45:58;;;;;;;14.57;9.18;;;;;;;1.24;68.22;95493.59;5070762;28;20017;-75
2021/11/12 01:53:32;;;;;;;14.07;9.02;;;;;;;1.32;68.70;95486.50;5072108;28;20025;-75
2021/11/12 01:58:51;;;;;;;15.25;9.27;;;;;;;1.29;67.77;95485.78;5073587;28;20094;-75
2021/11/12 02:01:18;;;;;;;13.18;8.32;;;;;;;1.24;68.29;95474.84;5058737;28;20070;-74
2021/11/12 02:03:43;;;;;;;15.10;8.68;;;;;;;1.15;68.74;95473.47;5057126;28;20040;-75
2021/11/12 02:06:11;;;;;;;14.48;8.73;;;;;;;1.19;68.41;95477.56;5073154;28;20029;-75
2021/11/12 02:08:37;;;;;;;12.57;8.50;;;;;;;1.13;68.07;95475.22;5074392;28;20040;-75
2021/11/12 02:11:02;;;;;;;14.55;9.70;;;;;;;1.14;68.56;95474.34;5056427;28;20029;-74
2021/11/12 02:13:27;;;;;;;16.33;9.35;;;;;;;1.09;68.41;95466.00;5074669;28;20071;-75
2021/11/12 02:15:53;;;;;;;14.15;9.20;;;;;;;1.04;68.95;95473.00;5056213;28;20502;-75
2021/11/12 02:18:31;;;;;;;14.18;9.05;;;;;;;1.03;68.53;95464.50;5073371;28;20522;-75
2021/11/12 02:21:07;;;;;;;14.77;9.32;;;;;;;1.10;69.07;95470.22;5073223;28;20035;-74
2021/11/12 02:23:36;;;;;;;17.48;9.90;;;;;;;1.08;69.02;95474.56;5073298;28;20033;-74
2021/11/12 02:26:03;;;;;;;14.82;9.55;;;;;;;1.07;69.08;95465.22;5074002;28;20056;-75
2021/11/12 02:28:29;;;;;;;14.73;10.85;;;;;;;1.07;69.49;95472.91;5055992;28;20093;-75
2021/11/12 02:30:55;;;;;;;14.85;10.00;;;;;;;1.04;69.29;95478.97;5072810;28;20465;-75
2021/11/12 02:33:22;;;;;;;17.98;10.82;;;;;;;0.99;69.61;95460.38;5074517;28;20029;-75
2021/11/12 02:36:08;;;;;;;15.73;11.27;;;;;;;1.03;69.17;95472.19;5074015;28;20028;-74
2021/11/12 02:38:35;;;;;;;17.23;11.75;;;;;;;1.02;69.41;95470.50;5057299;28;20055;-75
2021/11/12 02:41:02;;;;;;;17.48;10.70;;;;;;;0.96;69.84;95467.31;5072319;28;20029;-75
2021/11/12 02:43:28;;;;;;;14.98;10.63;;;;;;;0.93;69.22;95470.00;5072647;28;20465;-75
2021/11/12 02:45:55;;;;;;;16.30;11.38;;;;;;;0.90;69.14;95468.38;5072503;28;20025;-74
2021/11/12 02:48:21;;;;;;;19.77;11.85;;;;;;;0.88;69.51;95462.47;5072717;28;20111;-74
2021/11/12 02:50:47;;;;;;;19.48;12.43;;;;;;;0.80;69.58;95446.53;5073327;28;20392;-75
2021/11/12 02:53:14;;;;;;;19.63;12.13;;;;;;;0.93;69.73;95460.59;5072606;28;20066;-75
2021/11/12 02:55:40;;;;;;;18.38;12.52;;;;;;;0.92;69.88;95446.13;5072477;28;20073;-75
2021/11/12 02:58:06;;;;;;;17.20;12.27;;;;;;;0.89;69.79;95441.97;5072695;28;20033;-75
2021/11/12 03:00:31;;;;;;;18.05;11.55;;;;;;;0.92;69.61;95447.84;5055191;28;20092;-74
2021/11/12 03:02:56;;;;;;;16.98;11.80;;;;;;;0.86;69.54;95452.31;5072501;28;20456;-74
2021/11/12 03:05:22;;;;;;;20.23;13.18;;;;;;;0.83;69.24;95454.94;5072497;28;20028;-75
2021/11/12 03:07:48;;;;;;;19.40;14.15;;;;;;;0.80;69.54;95449.09;5072342;28;20063;-75
2021/11/12 03:10:14;;;;;;;23.23;15.10;;;;;;;0.78;69.45;95441.50;5071719;28;20422;-74
2021/11/12 03:12:40;;;;;;;18.63;14.13;;;;;;;0.75;69.98;95444.13;5055697;28;20033;-74
2021/11/12 03:15:06;;;;;;;19.27;12.65;;;;;;;0.71;69.62;95434.91;5073325;28;20085;-75
2021/11/12 03:17:31;;;;;;;16.70;11.75;;;;;;;0.73;69.61;95439.97;5072086;28;20048;-75
2021/11/12 03:19:57;;;;;;;14.68;10.93;;;;;;;0.70;69.91;95447.72;5071734;28;20020;-74
2021/11/12 03:22:24;;;;;;;13.25;9.30;;;;;;;0.69;69.46;95443.53;5071977;28;20041;-74
2021/11/12 03:25:00;;;;;;;14.57;10.55;;;;;;;0.68;69.46;95444.41;5071948;28;20141;-75
2021/11/12 03:27:45;;;;;;;14.88;10.82;;;;;;;0.52;69.65;95429.56;5072022;28;20025;-75
2021/11/12 05:33:29;;;;;;;15.80;10.05;;;;;;;-0.41;71.59;95441.06;5070004;28;20055;-75
2021/11/12 05:46:04;;;;;;;13.45;9.98;;;;;;;-0.40;72.20;95444.44;5073470;28;20036;-75
2021/11/12 05:56:42;;;;;;;10.70;8.95;;;;;;;-0.27;72.56;95438.94;5073652;28;20460;-75
2021/11/12 05:59:08;;;;;;;13.57;9.52;;;;;;;-0.43;72.69;95406.25;5073098;28;20028;-75
2021/11/12 06:01:34;;;;;;;13.63;10.43;;;;;;;-0.20;72.73;95439.56;5056523;28;20052;-74
2021/11/12 06:04:01;;;;;;;13.85;10.15;;;;;;;-0.20;72.50;95434.47;5072981;28;20025;-74
2021/11/12 06:06:26;;;;;;;12.63;9.70;;;;;;;-0.15;72.64;95437.72;5072978;28;20032;-74
2021/11/12 06:08:52;;;;;;;15.57;10.73;;;;;;;-0.18;72.49;95426.75;5072951;28;20031;-74
2021/11/12 06:11:18;;;;;;;16.20;11.63;;;;;;;-0.09;72.38;95436.69;5072794;28;20090;-75
2021/11/12 06:13:43;;;;;;;15.60;9.93;;;;;;;-0.10;72.86;95428.19;5074196;28;20070;-75
2021/11/12 06:16:09;;;;;;;15.07;10.23;;;;;;;-0.01;72.65;95440.66;5072879;28;20020;-75
2021/11/12 06:18:35;;;;;;;12.57;9.25;;;;;;;0.03;72.50;95430.34;5072823;28;20032;-73
2021/11/12 06:21:00;;;;;;;13.35;9.52;;;;;;;0.12;72.90;95440.28;5055751;28;20036;-75
2021/11/12 06:23:27;;;;;;;14.15;9.77;;;;;;;0.05;73.07;95424.31;5072695;28;20035;-75
2021/11/12 06:25:52;;;;;;;14.23;10.13;;;;;;;0.15;72.91;95433.34;5073767;28;20046;-74
2021/11/12 06:28:18;;;;;;;12.55;9.75;;;;;;;0.16;72.96;95434.19;5056140;28;20158;-75
2021/11/12 06:30:43;;;;;;;14.15;9.80;;;;;;;0.11;72.94;95424.13;5073641;28;20032;-74
2021/11/12 06:33:09;;;;;;;14.50;9.48;;;;;;;0.23;72.74;95438.22;5072761;28;20060;-74
2021/11/12 06:35:34;;;;;;;13.10;9.50;;;;;;;0.26;72.70;95434.75;5072538;28;20112;-75
2021/11/12 06:37:59;;;;;;;14.63;10.02;;;;;;;0.26;72.61;95440.69;5074139;28;20082;-74
2021/11/12 06:40:25;;;;;;;14.93;9.90;;;;;;;0.30;72.82;95438.84;5070900;28;20032;-75
2021/11/12 06:50:56;;;;;;;14.73;9.63;;;;;;;0.42;72.74;95434.19;5072195;28;20551;-74
2021/11/12 06:53:22;;;;;;;15.85;9.52;;;;;;;0.51;72.59;95439.88;5038979;28;20077;-75
2021/11/12 06:55:49;;;;;;;14.32;9.65;;;;;;;0.58;72.96;95438.75;5072003;28;20016;-74
2021/11/12 06:58:15;;;;;;;14.90;10.55;;;;;;;0.65;73.23;95435.94;5072397;28;20036;-75
2021/11/12 07:00:40;;;;;;;17.55;11.95;;;;;;;0.69;72.93;95430.72;5071935;28;20059;-74
2021/11/12 07:03:06;;;;;;;15.60;11.80;;;;;;;0.84;73.07;95436.16;5055543;28;20051;-74
2021/11/12 07:05:31;;;;;;;19.88;12.63;;;;;;;1.38;79.08;95423.16;5071963;28;20097;-74
2021/11/12 07:07:57;;;;;;;21.52;15.55;;;;;;;1.90;81.09;95418.63;5071938;28;20399;-74
2021/11/12 07:10:22;;;;;;;21.80;15.18;;;;;;;2.61;83.27;95431.97;5072027;28;20025;-75
2021/11/12 07:12:48;;;;;;;31.25;19.45;;;;;;;3.43;85.58;95426.72;5072249;28;20040;-74
2021/11/12 07:15:13;;;;;;;29.83;20.95;;;;;;;4.33;86.83;95419.06;5071835;28;20033;-75
2021/11/12 07:17:39;;;;;;;31.83;23.45;;;;;;;5.07;87.46;95413.63;5073521;28;20039;-75
2021/11/12 07:20:05;;;;;;;35.22;24.20;;;;;;;5.69;87.00;95409.50;5071988;28;20036;-75
2021/11/12 07:22:30;;;;;;;45.05;30.73;;;;;;;6.32;86.23;95412.94;5072947;28;20107;-75
2021/11/12 07:24:56;;;;;;;34.63;25.90;;;;;;;6.85;85.43;95404.72;5055113;28;20090;-75
2021/11/12 07:27:21;;;;;;;32.75;24.42;;;;;;;7.26;83.63;95405.72;5055163;28;20033;-75
2021/11/12 07:29:48;;;;;;;19.65;15.88;;;;;;;7.52;76.73;95410.16;5071669;28;20024;-75
2021/11/12 07:32:14;;;;;;;20.13;14.25;;;;;;;7.62;66.15;95397.50;5071673;28;20060;-75
2021/11/12 07:34:40;;;;;;;21.33;15.10;;;;;;;7.55;61.32;95402.22;5054909;28;20487;-75
2021/11/12 07:37:12;;;;;;;18.85;13.98;;;;;;;7.23;57.21;95396.41;5071641;28;20094;-75
2021/11/12 07:39:48;;;;;;;20.50;15.45;;;;;;;6.94;56.61;95390.41;5072745;28;20021;-74
2021/11/12 07:42:23;;;;;;;18.75;14.07;;;;;;;6.76;54.24;95383.75;5056722;28;20044;-75
2021/11/12 07:47:19;;;;;;;21.13;15.15;;;;;;;6.29;55.01;95392.47;5071385;28;20452;-75
2021/11/12 07:49:47;;;;;;;17.70;14.40;;;;;;;6.19;56.28;95393.00;5071155;28;20024;-75
2021/11/12 07:52:13;;;;;;;19.20;13.80;;;;;;;6.18;58.00;95385.34;5071390;28;20067;-74
2021/11/12 07:54:39;;;;;;;21.10;15.73;;;;;;;6.25;57.57;95392.66;5072063;28;20032;-75
2021/11/12 07:57:06;;;;;;;19.80;13.27;;;;;;;6.32;57.76;95384.56;5087019;28;20035;-75
2021/11/12 07:59:31;;;;;;;21.83;13.98;;;;;;;6.36;56.75;95380.91;5057958;28;20658;-75
2021/11/12 08:01:57;;;;;;;20.70;14.82;;;;;;;6.32;56.90;95382.81;5093049;28;20056;-74
2021/11/12 08:04:23;;;;;;;17.70;13.23;;;;;;;6.50;56.60;95386.09;5074562;28;20035;-75
2021/11/12 08:06:54;;;;;;;18.40;14.95;;;;;;;6.52;56.10;95383.41;5090885;28;20118;-75
2021/11/12 08:09:22;;;;;;;;;;;;;;;6.63;55.52;95381.88;5091776;28;20024;-75
2021/11/12 08:42:59;;;;;;;16.58;13.30;;;;;;;7.29;53.95;95365.03;5084522;28;20040;-76
2021/11/12 08:45:28;;;;;;;14.65;11.88;;;;;;;7.50;54.33;95364.66;5090108;28;20020;-75
2021/11/12 08:47:58;;;;;;;20.45;13.13;;;;;;;7.61;53.43;95363.03;5090247;28;20047;-76
2021/11/12 08:50:25;;;;;;;18.67;13.38;;;;;;;7.71;52.58;95360.69;5078867;28;20025;-73
2021/11/12 08:52:54;;;;;;;16.42;12.32;;;;;;;7.83;52.87;95353.94;5056210;28;20051;-73
2021/11/12 08:55:27;;;;;;;16.55;11.82;;;;;;;8.02;52.91;95353.59;5066977;28;20111;-72
2021/11/12 08:57:54;;;;;;;16.45;13.20;;;;;;;8.09;51.82;95339.34;5064293;28;20051;-73
2021/11/12 09:00:19;;;;;;;15.70;11.88;;;;;;;8.06;51.48;95347.31;5070331;28;20128;-72
2021/11/12 09:02:46;;;;;;;19.23;14.20;;;;;;;8.11;51.68;95341.81;5089418;28;20036;-73
2021/11/12 09:05:11;;;;;;;17.23;12.90;;;;;;;8.24;52.34;95343.50;5073103;28;20386;-71
2021/11/12 09:07:37;;;;;;;18.38;13.05;;;;;;;8.40;52.23;95348.53;5054920;28;20039;-73
2021/11/12 09:10:03;;;;;;;18.05;13.05;;;;;;;8.53;51.89;95350.34;5070736;28;20024;-73
2021/11/12 09:12:29;;;;;;;18.38;12.82;;;;;;;8.59;51.00;95344.75;5052855;28;20147;-72
2021/11/12 09:14:56;;;;;;;17.95;13.45;;;;;;;8.70;50.83;95339.69;5052927;28;20024;-72
2021/11/12 09:17:22;;;;;;;15.68;10.90;;;;;;;8.83;51.13;95329.31;5056352;28;20036;-72
2021/11/12 09:19:52;;;;;;;18.23;13.48;;;;;;;8.95;50.53;95334.50;5089573;28;20432;-72
2021/11/12 09:22:22;;;;;;;17.67;12.88;;;;;;;9.01;50.19;95324.66;5089770;28;20512;-71
2021/11/12 09:24:48;;;;;;;15.80;12.90;;;;;;;9.08;48.46;95318.94;5056535;28;20052;-73
2021/11/12 09:27:14;;;;;;;16.98;12.52;;;;;;;9.08;49.13;95323.28;5070573;28;20036;-71
2021/11/12 09:29:39;;;;;;;18.65;14.32;;;;;;;9.02;49.43;95303.78;5087229;28;20085;-71
2021/11/12 09:32:07;;;;;;;21.23;13.18;;;;;;;9.15;49.17;95314.16;5088834;28;20036;-71
2021/11/12 09:34:37;;;;;;;20.52;15.60;;;;;;;9.17;48.62;95314.88;5071130;28;20158;-71
2021/11/12 09:37:04;;;;;;;17.75;13.68;;;;;;;9.26;49.48;95313.41;5087303;28;20039;-71
2021/11/12 09:39:30;;;;;;;19.05;15.00;;;;;;;9.33;47.91;95304.25;5087547;28;20082;-71
2021/11/12 09:41:56;;;;;;;20.10;14.40;;;;;;;9.30;48.00;95297.53;5070365;28;20043;-71
2021/11/12 09:44:21;;;;;;;19.08;14.52;;;;;;;9.37;47.32;95283.19;5071950;28;20024;-71
2021/11/12 09:46:47;;;;;;;18.67;13.45;;;;;;;9.38;47.58;95284.84;5072580;28;20101;-71
2021/11/12 09:49:13;;;;;;;17.15;12.50;;;;;;;9.45;47.37;95282.66;5072582;28;20024;-71
2021/11/12 09:51:38;;;;;;;15.75;12.00;;;;;;;9.45;47.50;95271.47;5089269;28;20659;-71
2021/11/12 09:54:04;;;;;;;17.50;12.50;;;;;;;9.58;47.25;95283.47;5090555;28;20031;-71
2021/11/12 09:56:30;;;;;;;15.80;12.23;;;;;;;9.63;47.46;95281.34;5084497;28;20044;-71
2021/11/12 09:58:55;;;;;;;18.73;11.32;;;;;;;9.70;48.18;95271.38;5052553;28;20382;-71
2021/11/12 10:01:27;;;;;;;16.52;12.18;;;;;;;9.77;48.11;95267.38;5086649;28;20044;-72
2021/11/12 10:03:53;;;;;;;20.02;14.55;;;;;;;9.84;47.30;95271.19;5054116;28;20111;-72
2021/11/12 10:06:23;;;;;;;19.08;13.32;;;;;;;9.89;47.00;95259.63;5068907;28;20090;-72
2021/11/12 10:08:49;;;;;;;17.52;12.85;;;;;;;9.97;46.47;95252.97;5052538;28;20071;-71
2021/11/12 10:11:33;;;;;;;20.30;13.55;;;;;;;10.08;46.27;95252.16;5068942;28;20464;-71
2021/11/12 10:14:00;;;;;;;17.08;12.85;;;;;;;10.07;46.56;95255.72;5071822;28;20052;-71
2021/11/12 10:16:35;;;;;;;16.25;11.77;;;;;;;10.04;46.95;95251.56;5088101;28;20055;-71
2021/11/12 10:19:18;;;;;;;17.55;12.50;;;;;;;10.07;46.66;95240.13;5093069;28;20622;-72
2021/11/12 10:21:50;;;;;;;15.25;11.25;;;;;;;10.14;46.43;95243.94;5077019;28;20035;-71
2021/11/12 10:24:30;;;;;;;20.42;11.10;;;;;;;10.17;46.67;95222.94;5076247;28;20119;-72
2021/11/12 10:27:09;;;;;;;14.50;11.65;;;;;;;10.27;46.66;95231.72;5076609;28;20043;-72
2021/11/12 10:29:40;;;;;;;16.95;12.75;;;;;;;10.37;46.56;95236.22;5076958;28;20549;-71
2021/11/12 10:32:07;;;;;;;17.70;12.07;;;;;;;10.47;46.06;95224.19;5076474;28;20070;-71
2021/11/12 10:34:37;;;;;;;16.40;10.88;;;;;;;10.47;45.65;95224.19;5059015;28;20122;-72
2021/11/12 10:37:02;;;;;;;16.98;12.20;;;;;;;10.61;46.00;95220.53;5092705;28;20024;-71
2021/11/12 10:39:56;;;;;;;17.02;12.68;;;;;;;10.65;45.60;95217.59;5093838;28;20511;-72
2021/11/12 10:42:24;;;;;;;17.08;12.48;;;;;;;10.71;45.79;95217.13;5045773;28;20028;-72
2021/11/12 10:44:54;;;;;;;15.07;11.77;;;;;;;10.87;45.96;95203.78;5055343;28;20032;-72
2021/11/12 10:47:20;;;;;;;16.13;11.65;;;;;;;10.85;45.68;95194.44;5073563;28;20112;-71
2021/11/12 10:49:48;;;;;;;16.02;11.15;;;;;;;10.88;45.66;95196.81;5072032;28;20032;-72
2021/11/12 10:52:18;;;;;;;12.75;10.32;;;;;;;10.99;45.77;95201.97;5055773;28;20044;-72
2021/11/12 10:54:56;;;;;;;16.27;10.93;;;;;;;10.94;45.51;95193.72;5071984;28;20099;-72
2021/11/12 10:57:30;;;;;;;15.85;12.77;;;;;;;10.92;44.02;95200.81;5056295;28;20051;-72
2021/11/12 11:00:12;;;;;;;18.50;12.27;;;;;;;10.84;44.44;95198.00;5071570;28;20486;-72
2021/11/12 11:03:10;;;;;;;17.85;11.85;;;;;;;10.83;45.08;95189.34;5071951;28;20029;-72
2021/11/12 11:05:38;;;;;;;18.50;12.45;;;;;;;10.82;45.51;95190.31;5068819;28;20044;-71
2021/11/12 11:08:32;;;;;;;14.80;11.18;;;;;;;10.90;45.76;95187.13;5073462;28;20033;-72
2021/11/12 11:11:00;;;;;;;17.15;12.98;;;;;;;10.98;45.69;95194.28;5052625;28;20045;-72
2021/11/12 11:13:31;;;;;;;15.07;11.70;;;;;;;10.98;45.82;95174.34;5055244;28;20024;-72
2021/11/12 11:15:58;;;;;;;17.50;12.75;;;;;;;10.98;45.37;95158.75;5072764;28;20025;-72
2021/11/12 11:18:32;;;;;;;19.77;14.68;;;;;;;11.15;45.40;95179.03;5055007;28;20037;-72
2021/11/12 11:23:58;;;;;;;21.30;13.80;;;;;;;11.27;44.93;95169.44;5073018;28;20502;-72
2021/11/12 11:26:27;;;;;;;20.85;13.75;;;;;;;11.27;44.46;95163.41;5070565;28;20413;-71
2021/11/12 11:28:58;;;;;;;16.98;12.88;;;;;;;11.37;44.73;95159.13;5072532;28;20021;-72
2021/11/12 11:31:24;;;;;;;16.90;12.30;;;;;;;11.44;44.65;95170.69;5071153;28;20040;-72
2021/11/12 11:33:50;;;;;;;18.52;12.50;;;;;;;11.51;45.02;95168.41;5071291;28;20088;-72
2021/11/12 11:36:18;;;;;;;17.77;12.52;;;;;;;11.50;44.37;95159.75;5071173;28;20036;-71
2021/11/12 11:38:43;;;;;;;19.63;11.27;;;;;;;11.54;43.77;95155.16;5071245;28;20108;-71
2021/11/12 11:41:10;;;;;;;16.27;12.48;;;;;;;11.50;42.25;95154.56;5054382;28;20028;-72
2021/11/12 11:43:35;;;;;;;17.45;11.25;;;;;;;11.48;42.29;95151.28;5071395;28;20034;-72
2021/11/12 11:46:02;;;;;;;17.17;11.93;;;;;;;11.53;42.85;95156.94;5070889;28;20028;-72
2021/11/12 11:48:33;;;;;;;16.20;10.50;;;;;;;11.59;43.58;95156.44;5054455;28;20069;-72
2021/11/12 11:50:59;;;;;;;17.33;10.88;;;;;;;11.68;43.80;95156.63;5054282;28;20032;-72
2021/11/12 11:53:26;;;;;;;18.85;11.88;;;;;;;11.66;42.68;95161.13;5054329;28;20048;-72
2021/11/12 11:55:53;;;;;;;18.08;11.50;;;;;;;11.63;43.01;95150.03;5070764;28;20491;-72
2021/11/12 11:58:51;;;;;;;17.40;11.63;;;;;;;11.70;42.58;95155.56;5070795;28;20032;-72
2021/11/12 12:01:16;;;;;;;14.80;9.82;;;;;;;11.74;42.25;95150.94;5054217;28;20407;-72
2021/11/12 12:03:43;;;;;;;15.48;10.75;;;;;;;11.71;42.45;95152.00;5071970;28;20050;-72
2021/11/12 12:06:09;;;;;;;16.98;11.80;;;;;;;11.75;42.49;95145.59;5071612;28;20027;-72
2021/11/12 12:08:47;;;;;;;19.70;10.85;;;;;;;11.75;42.32;95147.38;5070869;28;20100;-72
2021/11/12 12:11:19;;;;;;;14.85;10.80;;;;;;;11.75;42.81;95142.97;5053932;28;20031;-72
2021/11/12 12:13:45;;;;;;;11.63;9.07;;;;;;;11.81;43.07;95146.84;5070442;28;20028;-72
2021/11/12 12:16:11;;;;;;;15.95;10.27;;;;;;;11.74;42.54;95135.31;5070386;28;20491;-72
2021/11/12 12:18:46;;;;;;;18.50;10.63;;;;;;;11.78;42.05;95136.69;5071100;28;20077;-72
2021/11/12 12:33:45;;;;;;;14.27;11.32;;;;;;;11.58;42.32;95131.34;5076350;28;20062;-72
2021/11/12 13:25:31;;;;;;;11.55;7.20;;;;;;;10.81;47.91;95120.25;5070682;28;20036;-72
2021/11/12 13:28:11;;;;;;;11.95;7.40;;;;;;;10.76;48.31;95119.81;5069609;28;20123;-72
2021/11/12 13:30:41;;;;;;;11.18;7.50;;;;;;;10.68;48.83;95110.00;5069225;28;20036;-71
2021/11/12 13:33:21;;;;;;;12.55;7.53;;;;;;;10.64;49.02;95112.03;5069901;28;20028;-72
2021/11/12 13:35:47;;;;;;;11.97;8.07;;;;;;;10.59;48.94;95106.38;5079095;28;20505;-72
2021/11/12 13:38:12;;;;;;;12.55;7.38;;;;;;;10.48;49.24;95102.00;5072927;28;20298;-71
2021/11/12 13:40:38;;;;;;;11.13;7.07;;;;;;;10.46;49.34;95097.88;5081441;28;20028;-71
2021/11/12 13:43:04;;;;;;;12.07;8.10;;;;;;;10.44;49.38;95104.94;5052872;28;20040;-71
2021/11/12 13:45:29;;;;;;;11.52;7.90;;;;;;;10.40;49.47;95111.34;5052507;28;20024;-72
2021/11/12 13:48:12;;;;;;;11.73;8.23;;;;;;;10.33;49.78;95104.94;5036167;28;20039;-72
2021/11/12 13:51:00;;;;;;;12.88;8.95;;;;;;;10.24;50.22;95109.88;5074334;28;20161;-71
2021/11/12 13:53:32;;;;;;;13.18;9.18;;;;;;;10.20;50.58;95111.06;5066824;28;20042;-72
2021/11/12 13:55:59;;;;;;;13.30;8.60;;;;;;;10.14;51.00;95111.53;5093217;28;20402;-72
2021/11/12 13:58:26;;;;;;;13.60;8.10;;;;;;;10.05;51.43;95101.84;5076553;28;20020;-72
2021/11/12 14:00:52;;;;;;;15.05;10.07;;;;;;;9.98;51.51;95105.84;5093177;28;20537;-72
2021/11/12 14:03:19;;;;;;;18.17;10.63;;;;;;;9.91;51.86;95109.84;5093389;28;20028;-72
2021/11/12 14:05:59;;;;;;;15.10;9.60;;;;;;;9.80;51.85;95102.88;5059863;28;20032;-72
2021/11/12 14:09:01;;;;;;;18.65;10.25;;;;;;;9.74;51.79;95108.53;5093121;28;20490;-72
2021/11/12 14:11:27;;;;;;;18.08;10.27;;;;;;;9.63;52.12;95112.72;5090669;28;20055;-72
2021/11/12 14:13:58;;;;;;;15.15;10.30;;;;;;;9.54;51.73;95103.06;5076281;28;20056;-72
2021/11/12 14:16:38;;;;;;;14.63;11.15;;;;;;;9.48;52.35;95108.69;5076365;28;20063;-72
2021/11/12 14:21:36;;;;;;;18.00;11.88;;;;;;;9.31;52.74;95109.94;5072576;28;20083;-72
2021/11/12 14:40:43;;;;;;;22.92;15.77;;;;;;;8.74;55.33;95108.00;5072934;28;20048;-72
2021/11/12 14:46:02;;;;;;;;;;;;;;;8.72;55.84;95125.44;5072700;28;20037;-72
2021/11/12 14:48:31;;;;;;;22.70;15.90;;;;;;;8.59;56.11;95125.44;5072423;28;19924;-72
2021/11/12 14:51:21;;;;;;;23.83;15.50;;;;;;;8.57;56.04;95132.50;5074622;28;20032;-72
2021/11/12 14:56:15;;;;;;;22.60;14.57;;;;;;;8.52;56.21;95138.94;5091733;28;20028;-72
2021/11/12 14:58:46;;;;;;;19.27;14.68;;;;;;;8.42;56.75;95130.97;5075947;28;20028;-72
2021/11/12 15:01:21;;;;;;;19.95;13.35;;;;;;;8.36;56.76;95132.19;5090909;28;20483;-72
2021/11/12 15:03:47;;;;;;;19.38;13.00;;;;;;;8.27;57.24;95127.63;5075210;28;20414;-72
2021/11/12 15:06:14;;;;;;;21.80;13.05;;;;;;;8.24;57.26;95131.25;5075134;28;20094;-72
2021/11/12 15:08:58;;;;;;;20.50;12.77;;;;;;;8.11;57.43;95129.63;5091918;28;20429;-72
2021/11/12 15:11:26;;;;;;;22.15;14.45;;;;;;;8.07;57.47;95144.53;5063245;28;20047;-72
2021/11/12 15:13:53;;;;;;;22.85;14.55;;;;;;;8.03;57.21;95138.75;5075397;28;20028;-72
2021/11/12 15:16:23;;;;;;;18.70;13.05;;;;;;;7.93;57.32;95127.34;5075185;28;20032;-72
2021/11/12 15:18:52;;;;;;;34.85;21.55;;;;;;;7.98;56.81;95140.81;5059566;28;20110;-72
2021/11/12 15:21:30;;;;;;;33.05;19.17;;;;;;;7.95;57.19;95141.03;5091715;28;20040;-72
2021/11/12 15:31:59;;;;;;;19.83;12.02;;;;;;;7.51;58.27;95149.13;5076680;28;20039;-72
2021/11/12 15:34:26;;;;;;;20.70;15.05;;;;;;;7.34;58.35;95160.56;5078315;28;20032;-72
2021/11/12 15:44:37;;;;;;;;;;;;;;;7.02;59.29;95176.38;5093240;28;20036;-72
2021/11/12 15:47:08;;;;;;;23.50;16.75;;;;;;;7.66;61.01;95171.41;5092955;28;19916;-71
2021/11/12 15:49:36;;;;;;;;;;;;;;;9.03;56.32;95169.91;5092755;28;20486;-69
2021/11/12 15:52:06;;;;;;;24.17;15.98;;;;;;;9.75;53.63;95164.66;5079752;28;19920;-69
2021/11/12 15:54:56;;;;;;;22.38;15.05;;;;;;;10.51;51.07;95165.88;5070664;28;20032;-70
2021/11/12 16:05:56;;;;;;;27.83;21.95;;;;;;;10.48;46.69;95171.31;5049515;28;20040;-72
2021/11/12 16:08:38;;;;;;;32.50;22.13;;;;;;;9.68;48.29;95171.25;5055010;28;20362;-72
2021/11/12 16:18:43;;;;;;;17.38;10.73;;;;;;;7.77;52.61;95188.78;5070539;28;20029;-72
2021/11/12 16:23:52;;;;;;;18.73;10.25;;;;;;;7.16;55.03;95184.09;5075720;28;20044;-72
2021/11/12 16:26:19;;;;;;;15.68;9.73;;;;;;;6.88;56.36;95181.56;5070298;28;20040;-72
2021/11/12 16:31:19;;;;;;;16.38;10.95;;;;;;;6.61;56.64;95184.94;5083999;28;20382;-72
2021/11/12 16:33:44;;;;;;;16.05;10.55;;;;;;;6.44;56.90;95185.97;5071426;28;20035;-71
2021/11/12 16:36:10;;;;;;;14.02;9.57;;;;;;;6.39;57.38;95197.50;5070052;28;20457;-72
2021/11/12 16:38:36;;;;;;;15.45;9.45;;;;;;;6.32;57.04;95193.59;5070070;28;20067;-72
2021/11/12 16:41:26;;;;;;;14.68;10.20;;;;;;;6.16;57.48;95186.78;5070099;28;20028;-72
2021/11/12 17:00:11;;;;;;;13.60;7.63;;;;;;;5.85;55.46;95204.94;5044513;28;20482;-72
2021/11/12 17:10:29;;;;;;;12.07;7.32;;;;;;;5.67;56.15;95209.41;5055645;28;20032;-72
2021/11/12 17:13:35;;;;;;;10.80;7.90;;;;;;;5.56;55.93;95203.13;5069925;28;20124;-71
2021/11/12 17:15:53;;;;;;;;;;;;;;;5.57;54.96;95206.53;5080012;28;20349;-71
2021/11/12 17:47:47;;;;;;;9.55;6.57;;;;;;;5.58;53.92;95206.44;5069447;28;20037;-71
2021/11/12 18:03:54;;;;;;;9.05;5.82;;;;;;;5.60;52.54;95209.78;5069704;28;20114;-72
2021/11/12 18:06:47;;;;;;;9.80;6.30;;;;;;;5.62;52.78;95207.09;5053773;28;20063;-72
2021/11/12 18:22:47;;;;;;;8.45;5.45;;;;;;;5.85;50.53;95197.22;5069335;28;20032;-71
2021/11/12 21:48:27;;;;;;;18.65;9.68;;;;;;;4.85;46.95;95239.69;5069092;28;20513;-72
2021/11/12 21:50:54;;;;;;;20.20;9.68;;;;;;;4.77;46.94;95249.56;5035833;28;20064;-72
2021/11/12 21:53:22;;;;;;;16.27;8.40;;;;;;;4.60;47.40;95247.88;5052953;28;20059;-72
2021/11/12 21:55:49;;;;;;;13.38;6.90;;;;;;;4.52;47.76;95254.34;5069161;28;20111;-72
2021/11/12 21:58:14;;;;;;;13.02;7.30;;;;;;;4.43;48.00;95256.47;5052781;28;20032;-72
2021/11/12 22:00:40;;;;;;;20.83;10.95;;;;;;;4.35;49.19;95252.63;5069048;28;20044;-72
2021/11/12 22:03:06;;;;;;;12.43;7.38;;;;;;;4.29;50.25;95256.34;5069305;28;20037;-72